Airfield :







YOU CAN JOIN US ON...

 
LOGIN :

Register | Disclaimer

   EN    FR    IT 

 









Legend :    VFR   Marginal VFR   IFR   Intensive IFR   Very Intensive IFR
Visi :
Ceiling :
>= 8 km
>= 3000ft
5 to 8 km
1000 to 3000 ft
1500m to 5 km
500 to 1000 ft
800 to 1500m
200 to 500 ft
< 800m
< 200 ft
Symbols :   Thunderstorms  Fog  Heavy snow  Heavy precipitations  Wind > 20 kt






- Airport Elevation : 84 ft
- IATA code : YJT


CYJT - Stephenville

CURRENT METAR :
  • 230400Z 04007KT 12SM -SHRA FEW009 BKN023 OVC039 13/12 A2984 RMK SF1SC5SC2 CVCTV CLD EMBD SLP108

EXPIRED METARs :
  • 230333Z 07007KT 10SM -SHRA FEW009 OVC016 13/12 A2985 RMK SF1SC7 CVCTV CLD EMBD SLP111
  • 230309Z 06009KT 8SM SHRA BKN016 OVC028 13/12 A2987 RMK SC7SC1 CVCTV CLD EMBD SLP117
  • 230255Z 08008KT 10SM SHRA SCT017 BKN033 13/12 A2987 RMK SC6SC2 CVCTV CLD EMBD SLP117
  • 230200Z CCA 06008KT 12SM -SHRA OVC022 13/11 A2988 RMK SC8 CVCTV CLD EMBD PRESFR SLP122
  • 230148Z 07010KT 15SM -SHRA BKN021 BKN047 13/11 A2990 RMK SC6SC2 CVCTV CLD EMBD SLP126

TAF TAF CYJT
Valid from the 23 at 00:00 until the 24 at 00:00 UTC


222338Z 2300/2324 07010KT P6SM BKN040 OVC160
TEMPO 2300/2303 5SM -SHRA BR BKN008 OVC040
BECMG 2301/2303 20012KT
FM230300 20012KT 3SM -RA BR OVC007
TEMPO 2303/2306 P6SM -SHRA SCT007 OVC010
PROB30 2303/2306 3/4SM -RA -DZ BR OVC002
FM230600 20010KT 2SM -DZ BR OVC005
PROB30 2306/2315 1/2SM FG VV002
FM231500 23010KT P6SM -DZ OVC008 RMK NXT FCST BY 230600Z
CZQX FIR / North America



MET'MAP, your aeronautical weather chart ! - Copyright ORBIFLY December 2007 - Disclaimer

ORBIFLY MET'MAP TEAM :

Programming & Development : Alexandra Zaïnal
Concept & original design : Baudouin d'Aumeries
Assistance for programming : Marc-Olivier Méhu
Technical & hardware support : Manuel Goepfert

Contact : metmap@orbifly.com




SOURCES & CREDITS :

   NOAA